sensor_id;sensor_type;location;lat;lon;timestamp;P1;durP1;ratioP1;P2;durP2;ratioP2
70727;SDS011;58314;47.722;17.652;2022-11-04T00:01:51;61.95;;;43.38;;
70727;SDS011;58314;47.722;17.652;2022-11-04T00:04:52;61.42;;;44.85;;
70727;SDS011;58314;47.722;17.652;2022-11-04T00:07:52;62.15;;;45.33;;
70727;SDS011;58314;47.722;17.652;2022-11-04T00:11:11;66.75;;;48.03;;
70727;SDS011;58314;47.722;17.652;2022-11-04T00:14:47;64.05;;;47.00;;
70727;SDS011;58314;47.722;17.652;2022-11-04T00:17:47;62.88;;;48.33;;
70727;SDS011;58314;47.722;17.652;2022-11-04T00:20:49;67.22;;;49.67;;
70727;SDS011;58314;47.722;17.652;2022-11-04T00:24:08;63.30;;;47.00;;
70727;SDS011;58314;47.722;17.652;2022-11-04T00:27:49;53.08;;;28.77;;
70727;SDS011;58314;47.722;17.652;2022-11-04T00:31:08;56.50;;;42.97;;
70727;SDS011;58314;47.722;17.652;2022-11-04T00:34:27;54.97;;;40.50;;
70727;SDS011;58314;47.722;17.652;2022-11-04T00:37:28;51.47;;;39.95;;
70727;SDS011;58314;47.722;17.652;2022-11-04T00:40:28;54.83;;;39.53;;
70727;SDS011;58314;47.722;17.652;2022-11-04T00:43:29;55.05;;;40.00;;
70727;SDS011;58314;47.722;17.652;2022-11-04T00:46:30;50.53;;;27.35;;
70727;SDS011;58314;47.722;17.652;2022-11-04T00:49:32;62.42;;;43.20;;
70727;SDS011;58314;47.722;17.652;2022-11-04T00:52:33;59.20;;;42.58;;
70727;SDS011;58314;47.722;17.652;2022-11-04T00:55:34;60.38;;;44.38;;
70727;SDS011;58314;47.722;17.652;2022-11-04T00:58:34;55.92;;;42.17;;
70727;SDS011;58314;47.722;17.652;2022-11-04T01:01:35;53.28;;;33.47;;
70727;SDS011;58314;47.722;17.652;2022-11-04T01:04:36;58.05;;;44.63;;
70727;SDS011;58314;47.722;17.652;2022-11-04T01:07:37;57.95;;;45.13;;
70727;SDS011;58314;47.722;17.652;2022-11-04T01:10:38;59.22;;;43.85;;
70727;SDS011;58314;47.722;17.652;2022-11-04T01:13:43;48.88;;;26.77;;
70727;SDS011;58314;47.722;17.652;2022-11-04T01:16:44;56.28;;;42.20;;
70727;SDS011;58314;47.722;17.652;2022-11-04T01:19:45;53.17;;;30.42;;
70727;SDS011;58314;47.722;17.652;2022-11-04T01:22:45;52.33;;;32.88;;
70727;SDS011;58314;47.722;17.652;2022-11-04T01:25:46;56.65;;;41.15;;
70727;SDS011;58314;47.722;17.652;2022-11-04T01:28:46;54.17;;;39.97;;
70727;SDS011;58314;47.722;17.652;2022-11-04T01:31:47;55.90;;;39.70;;
70727;SDS011;58314;47.722;17.652;2022-11-04T01:34:48;40.35;;;21.25;;
70727;SDS011;58314;47.722;17.652;2022-11-04T01:37:48;55.28;;;39.65;;
70727;SDS011;58314;47.722;17.652;2022-11-04T01:40:49;52.03;;;39.10;;
70727;SDS011;58314;47.722;17.652;2022-11-04T01:43:54;43.30;;;26.58;;
70727;SDS011;58314;47.722;17.652;2022-11-04T01:46:57;46.50;;;35.03;;
70727;SDS011;58314;47.722;17.652;2022-11-04T01:49:59;50.72;;;37.20;;
70727;SDS011;58314;47.722;17.652;2022-11-04T01:53:06;40.88;;;24.20;;
70727;SDS011;58314;47.722;17.652;2022-11-04T01:56:12;48.42;;;35.67;;
70727;SDS011;58314;47.722;17.652;2022-11-04T01:59:16;44.40;;;28.92;;
70727;SDS011;58314;47.722;17.652;2022-11-04T02:02:26;41.25;;;25.13;;
70727;SDS011;58314;47.722;17.652;2022-11-04T02:05:28;46.50;;;36.13;;
70727;SDS011;58314;47.722;17.652;2022-11-04T02:08:30;45.15;;;35.00;;
70727;SDS011;58314;47.722;17.652;2022-11-04T02:11:31;39.38;;;20.85;;
70727;SDS011;58314;47.722;17.652;2022-11-04T02:14:50;45.33;;;36.25;;
70727;SDS011;58314;47.722;17.652;2022-11-04T02:34:27;46.35;;;22.00;;
70727;SDS011;58314;47.722;17.652;2022-11-04T02:41:38;43.55;;;29.90;;
70727;SDS011;58314;47.722;17.652;2022-11-04T02:44:49;40.70;;;23.92;;
70727;SDS011;58314;47.722;17.652;2022-11-04T02:48:00;45.78;;;34.65;;
70727;SDS011;58314;47.722;17.652;2022-11-04T02:51:08;46.38;;;36.65;;
70727;SDS011;58314;47.722;17.652;2022-11-04T02:57:26;32.15;;;18.90;;
70727;SDS011;58314;47.722;17.652;2022-11-04T03:00:29;45.47;;;35.55;;
70727;SDS011;58314;47.722;17.652;2022-11-04T03:03:34;44.95;;;34.35;;
70727;SDS011;58314;47.722;17.652;2022-11-04T03:06:40;45.53;;;33.95;;
70727;SDS011;58314;47.722;17.652;2022-11-04T03:09:45;35.70;;;21.52;;
70727;SDS011;58314;47.722;17.652;2022-11-04T03:12:53;44.92;;;31.48;;
70727;SDS011;58314;47.722;17.652;2022-11-04T03:15:58;41.70;;;26.05;;
70727;SDS011;58314;47.722;17.652;2022-11-04T03:22:16;40.63;;;23.30;;
70727;SDS011;58314;47.722;17.652;2022-11-04T03:25:19;44.03;;;29.23;;
70727;SDS011;58314;47.722;17.652;2022-11-04T03:32:06;53.10;;;39.50;;
70727;SDS011;58314;47.722;17.652;2022-11-04T03:35:12;46.47;;;27.50;;
70727;SDS011;58314;47.722;17.652;2022-11-04T03:38:15;47.85;;;27.35;;
70727;SDS011;58314;47.722;17.652;2022-11-04T03:41:17;59.70;;;42.17;;
70727;SDS011;58314;47.722;17.652;2022-11-04T03:44:25;46.78;;;27.27;;
70727;SDS011;58314;47.722;17.652;2022-11-04T03:47:28;47.95;;;26.08;;
70727;SDS011;58314;47.722;17.652;2022-11-04T03:50:40;51.42;;;26.35;;
70727;SDS011;58314;47.722;17.652;2022-11-04T03:53:46;59.75;;;41.85;;
70727;SDS011;58314;47.722;17.652;2022-11-04T04:00:14;45.58;;;24.77;;
70727;SDS011;58314;47.722;17.652;2022-11-04T04:03:19;55.20;;;40.63;;
70727;SDS011;58314;47.722;17.652;2022-11-04T04:06:27;54.70;;;40.17;;
70727;SDS011;58314;47.722;17.652;2022-11-04T04:12:36;49.20;;;25.40;;
70727;SDS011;58314;47.722;17.652;2022-11-04T04:15:44;55.15;;;39.50;;
70727;SDS011;58314;47.722;17.652;2022-11-04T04:18:51;42.75;;;23.60;;
70727;SDS011;58314;47.722;17.652;2022-11-04T04:21:58;52.72;;;39.50;;
70727;SDS011;58314;47.722;17.652;2022-11-04T04:25:03;60.47;;;42.28;;
70727;SDS011;58314;47.722;17.652;2022-11-04T04:28:25;46.15;;;28.92;;
70727;SDS011;58314;47.722;17.652;2022-11-04T04:31:25;53.50;;;38.85;;
70727;SDS011;58314;47.722;17.652;2022-11-04T04:34:49;51.95;;;38.72;;
70727;SDS011;58314;47.722;17.652;2022-11-04T04:37:50;48.70;;;36.38;;
70727;SDS011;58314;47.722;17.652;2022-11-04T04:40:54;43.08;;;24.77;;
70727;SDS011;58314;47.722;17.652;2022-11-04T04:44:21;49.88;;;37.20;;
70727;SDS011;58314;47.722;17.652;2022-11-04T04:47:43;53.53;;;38.53;;
70727;SDS011;58314;47.722;17.652;2022-11-04T04:50:46;50.75;;;39.40;;
70727;SDS011;58314;47.722;17.652;2022-11-04T04:53:50;50.50;;;36.88;;
70727;SDS011;58314;47.722;17.652;2022-11-04T04:56:51;44.00;;;31.38;;
70727;SDS011;58314;47.722;17.652;2022-11-04T04:59:51;49.42;;;37.20;;
70727;SDS011;58314;47.722;17.652;2022-11-04T05:02:52;49.45;;;37.08;;
70727;SDS011;58314;47.722;17.652;2022-11-04T05:05:53;44.63;;;35.90;;
70727;SDS011;58314;47.722;17.652;2022-11-04T05:08:53;49.25;;;36.85;;
70727;SDS011;58314;47.722;17.652;2022-11-04T05:11:54;48.40;;;37.15;;
70727;SDS011;58314;47.722;17.652;2022-11-04T05:14:55;42.33;;;26.60;;
70727;SDS011;58314;47.722;17.652;2022-11-04T05:17:59;48.63;;;35.47;;
70727;SDS011;58314;47.722;17.652;2022-11-04T05:21:04;41.35;;;24.92;;
70727;SDS011;58314;47.722;17.652;2022-11-04T05:24:05;48.80;;;36.05;;
70727;SDS011;58314;47.722;17.652;2022-11-04T05:27:06;41.40;;;26.70;;
70727;SDS011;58314;47.722;17.652;2022-11-04T05:30:07;46.80;;;35.08;;
70727;SDS011;58314;47.722;17.652;2022-11-04T05:33:08;44.83;;;34.40;;
70727;SDS011;58314;47.722;17.652;2022-11-04T05:36:09;42.25;;;28.60;;
70727;SDS011;58314;47.722;17.652;2022-11-04T05:39:12;43.75;;;34.35;;
70727;SDS011;58314;47.722;17.652;2022-11-04T05:42:13;42.80;;;33.17;;
70727;SDS011;58314;47.722;17.652;2022-11-04T05:45:13;43.97;;;27.13;;
70727;SDS011;58314;47.722;17.652;2022-11-04T05:48:14;42.75;;;33.45;;
70727;SDS011;58314;47.722;17.652;2022-11-04T05:51:15;45.78;;;35.17;;
70727;SDS011;58314;47.722;17.652;2022-11-04T05:54:18;53.20;;;43.30;;
70727;SDS011;58314;47.722;17.652;2022-11-04T05:57:19;41.03;;;25.17;;
70727;SDS011;58314;47.722;17.652;2022-11-04T06:00:20;43.22;;;33.58;;
70727;SDS011;58314;47.722;17.652;2022-11-04T06:03:20;45.88;;;34.13;;
70727;SDS011;58314;47.722;17.652;2022-11-04T06:06:21;41.80;;;31.38;;
70727;SDS011;58314;47.722;17.652;2022-11-04T06:09:23;44.28;;;32.17;;
70727;SDS011;58314;47.722;17.652;2022-11-04T06:12:38;46.10;;;32.97;;
70727;SDS011;58314;47.722;17.652;2022-11-04T06:15:39;42.30;;;31.20;;
70727;SDS011;58314;47.722;17.652;2022-11-04T06:18:39;38.60;;;29.70;;
70727;SDS011;58314;47.722;17.652;2022-11-04T06:21:40;38.70;;;29.58;;
70727;SDS011;58314;47.722;17.652;2022-11-04T06:24:41;40.78;;;30.33;;
70727;SDS011;58314;47.722;17.652;2022-11-04T06:27:42;40.22;;;30.92;;
70727;SDS011;58314;47.722;17.652;2022-11-04T06:30:43;40.72;;;31.27;;
70727;SDS011;58314;47.722;17.652;2022-11-04T06:33:44;37.70;;;30.88;;
70727;SDS011;58314;47.722;17.652;2022-11-04T06:36:45;36.70;;;29.10;;
70727;SDS011;58314;47.722;17.652;2022-11-04T06:39:45;40.85;;;30.38;;
70727;SDS011;58314;47.722;17.652;2022-11-04T06:42:46;40.55;;;30.50;;
70727;SDS011;58314;47.722;17.652;2022-11-04T06:45:53;37.60;;;29.85;;
70727;SDS011;58314;47.722;17.652;2022-11-04T06:48:54;42.65;;;33.92;;
70727;SDS011;58314;47.722;17.652;2022-11-04T06:51:56;51.47;;;42.55;;
70727;SDS011;58314;47.722;17.652;2022-11-04T06:54:56;37.05;;;29.88;;
70727;SDS011;58314;47.722;17.652;2022-11-04T06:57:57;38.08;;;29.42;;
70727;SDS011;58314;47.722;17.652;2022-11-04T07:00:58;37.30;;;29.52;;
70727;SDS011;58314;47.722;17.652;2022-11-04T07:03:59;38.05;;;30.13;;
70727;SDS011;58314;47.722;17.652;2022-11-04T07:07:00;37.28;;;30.35;;
70727;SDS011;58314;47.722;17.652;2022-11-04T07:10:00;36.20;;;28.80;;
70727;SDS011;58314;47.722;17.652;2022-11-04T07:13:01;36.38;;;28.88;;
70727;SDS011;58314;47.722;17.652;2022-11-04T07:16:05;37.15;;;29.08;;
70727;SDS011;58314;47.722;17.652;2022-11-04T07:19:06;38.17;;;29.75;;
70727;SDS011;58314;47.722;17.652;2022-11-04T07:22:07;33.30;;;27.73;;
70727;SDS011;58314;47.722;17.652;2022-11-04T07:25:08;35.75;;;28.70;;
70727;SDS011;58314;47.722;17.652;2022-11-04T07:28:09;37.53;;;28.38;;
70727;SDS011;58314;47.722;17.652;2022-11-04T07:31:10;36.25;;;29.20;;
70727;SDS011;58314;47.722;17.652;2022-11-04T07:34:12;34.50;;;27.92;;
70727;SDS011;58314;47.722;17.652;2022-11-04T07:37:13;35.78;;;28.67;;
70727;SDS011;58314;47.722;17.652;2022-11-04T07:40:14;39.25;;;30.48;;
70727;SDS011;58314;47.722;17.652;2022-11-04T07:43:14;38.58;;;30.50;;
70727;SDS011;58314;47.722;17.652;2022-11-04T07:46:16;41.67;;;33.90;;
70727;SDS011;58314;47.722;17.652;2022-11-04T07:49:18;41.85;;;34.83;;
70727;SDS011;58314;47.722;17.652;2022-11-04T07:52:19;39.15;;;30.02;;
70727;SDS011;58314;47.722;17.652;2022-11-04T07:55:19;40.13;;;30.67;;
70727;SDS011;58314;47.722;17.652;2022-11-04T07:58:20;41.28;;;32.17;;
70727;SDS011;58314;47.722;17.652;2022-11-04T08:01:22;43.65;;;32.38;;
70727;SDS011;58314;47.722;17.652;2022-11-04T08:04:23;43.03;;;32.15;;
70727;SDS011;58314;47.722;17.652;2022-11-04T08:07:24;42.55;;;32.88;;
70727;SDS011;58314;47.722;17.652;2022-11-04T08:10:25;39.85;;;31.83;;
70727;SDS011;58314;47.722;17.652;2022-11-04T08:13:26;41.45;;;34.22;;
70727;SDS011;58314;47.722;17.652;2022-11-04T08:16:28;41.35;;;33.50;;
70727;SDS011;58314;47.722;17.652;2022-11-04T08:19:29;37.92;;;30.70;;
70727;SDS011;58314;47.722;17.652;2022-11-04T08:22:30;38.72;;;31.17;;
70727;SDS011;58314;47.722;17.652;2022-11-04T08:25:31;43.00;;;33.08;;
70727;SDS011;58314;47.722;17.652;2022-11-04T08:28:31;39.00;;;30.50;;
70727;SDS011;58314;47.722;17.652;2022-11-04T08:31:32;37.83;;;30.25;;
70727;SDS011;58314;47.722;17.652;2022-11-04T08:34:33;36.15;;;29.42;;
70727;SDS011;58314;47.722;17.652;2022-11-04T08:37:34;34.30;;;28.02;;
70727;SDS011;58314;47.722;17.652;2022-11-04T08:40:35;33.13;;;27.08;;
70727;SDS011;58314;47.722;17.652;2022-11-04T08:43:36;34.05;;;27.13;;
70727;SDS011;58314;47.722;17.652;2022-11-04T08:46:37;34.53;;;26.42;;
70727;SDS011;58314;47.722;17.652;2022-11-04T08:49:38;35.28;;;28.20;;
70727;SDS011;58314;47.722;17.652;2022-11-04T08:52:41;32.90;;;26.65;;
70727;SDS011;58314;47.722;17.652;2022-11-04T08:55:42;32.75;;;26.30;;
70727;SDS011;58314;47.722;17.652;2022-11-04T08:58:42;31.25;;;25.33;;
70727;SDS011;58314;47.722;17.652;2022-11-04T09:01:43;30.15;;;25.98;;
70727;SDS011;58314;47.722;17.652;2022-11-04T09:04:44;35.20;;;26.52;;
70727;SDS011;58314;47.722;17.652;2022-11-04T09:07:44;33.92;;;28.10;;
70727;SDS011;58314;47.722;17.652;2022-11-04T09:10:46;33.60;;;27.90;;
70727;SDS011;58314;47.722;17.652;2022-11-04T09:13:47;36.50;;;28.83;;
70727;SDS011;58314;47.722;17.652;2022-11-04T09:16:47;33.85;;;27.58;;
70727;SDS011;58314;47.722;17.652;2022-11-04T09:19:48;44.75;;;39.90;;
70727;SDS011;58314;47.722;17.652;2022-11-04T09:22:49;37.08;;;30.90;;
70727;SDS011;58314;47.722;17.652;2022-11-04T09:25:50;32.72;;;26.17;;
70727;SDS011;58314;47.722;17.652;2022-11-04T09:28:54;32.95;;;26.33;;
70727;SDS011;58314;47.722;17.652;2022-11-04T09:31:56;30.95;;;24.92;;
70727;SDS011;58314;47.722;17.652;2022-11-04T09:34:56;34.47;;;26.88;;
70727;SDS011;58314;47.722;17.652;2022-11-04T09:37:58;32.00;;;27.05;;
70727;SDS011;58314;47.722;17.652;2022-11-04T09:41:00;33.67;;;26.30;;
70727;SDS011;58314;47.722;17.652;2022-11-04T09:47:01;31.65;;;25.35;;
70727;SDS011;58314;47.722;17.652;2022-11-04T09:50:04;30.90;;;26.55;;
70727;SDS011;58314;47.722;17.652;2022-11-04T09:53:17;32.47;;;27.17;;
70727;SDS011;58314;47.722;17.652;2022-11-04T09:56:38;34.95;;;28.45;;
70727;SDS011;58314;47.722;17.652;2022-11-04T09:59:44;36.58;;;28.90;;
70727;SDS011;58314;47.722;17.652;2022-11-04T10:16:56;40.40;;;32.20;;
70727;SDS011;58314;47.722;17.652;2022-11-04T10:19:46;38.22;;;31.40;;
70727;SDS011;58314;47.722;17.652;2022-11-04T10:23:54;37.47;;;32.15;;
70727;SDS011;58314;47.722;17.652;2022-11-04T10:26:43;38.55;;;30.83;;
70727;SDS011;58314;47.722;17.652;2022-11-04T10:29:53;39.95;;;31.40;;
70727;SDS011;58314;47.722;17.652;2022-11-04T10:33:03;40.13;;;31.58;;
70727;SDS011;58314;47.722;17.652;2022-11-04T10:36:20;38.88;;;31.40;;
70727;SDS011;58314;47.722;17.652;2022-11-04T10:39:26;40.38;;;33.25;;
70727;SDS011;58314;47.722;17.652;2022-11-04T10:42:29;40.83;;;32.53;;
70727;SDS011;58314;47.722;17.652;2022-11-04T10:45:40;39.47;;;32.75;;
70727;SDS011;58314;47.722;17.652;2022-11-04T10:49:12;38.95;;;31.73;;
70727;SDS011;58314;47.722;17.652;2022-11-04T10:52:15;39.08;;;33.15;;
70727;SDS011;58314;47.722;17.652;2022-11-04T10:55:27;38.67;;;32.05;;
70727;SDS011;58314;47.722;17.652;2022-11-04T10:58:38;39.45;;;33.17;;
70727;SDS011;58314;47.722;17.652;2022-11-04T11:01:48;38.45;;;32.53;;
70727;SDS011;58314;47.722;17.652;2022-11-04T11:04:53;40.05;;;33.10;;
70727;SDS011;58314;47.722;17.652;2022-11-04T11:08:25;49.83;;;34.67;;
70727;SDS011;58314;47.722;17.652;2022-11-04T11:11:33;40.28;;;34.25;;
70727;SDS011;58314;47.722;17.652;2022-11-04T11:14:36;41.50;;;35.92;;
70727;SDS011;58314;47.722;17.652;2022-11-04T11:17:37;43.35;;;34.28;;
70727;SDS011;58314;47.722;17.652;2022-11-04T11:20:39;45.05;;;37.22;;
70727;SDS011;58314;47.722;17.652;2022-11-04T11:23:43;49.20;;;40.40;;
70727;SDS011;58314;47.722;17.652;2022-11-04T11:26:52;44.75;;;37.28;;
70727;SDS011;58314;47.722;17.652;2022-11-04T11:29:55;44.83;;;37.38;;
70727;SDS011;58314;47.722;17.652;2022-11-04T11:32:56;48.15;;;38.90;;
70727;SDS011;58314;47.722;17.652;2022-11-04T11:36:01;45.38;;;37.83;;
70727;SDS011;58314;47.722;17.652;2022-11-04T11:42:13;51.15;;;42.05;;
70727;SDS011;58314;47.722;17.652;2022-11-04T11:48:30;52.83;;;43.88;;
70727;SDS011;58314;47.722;17.652;2022-11-04T11:51:42;56.30;;;43.03;;
70727;SDS011;58314;47.722;17.652;2022-11-04T11:54:43;56.75;;;43.40;;
70727;SDS011;58314;47.722;17.652;2022-11-04T12:01:18;57.60;;;44.63;;
70727;SDS011;58314;47.722;17.652;2022-11-04T12:04:27;56.45;;;45.88;;
70727;SDS011;58314;47.722;17.652;2022-11-04T12:21:12;71.20;;;51.65;;
70727;SDS011;58314;47.722;17.652;2022-11-04T12:24:32;68.77;;;50.17;;
70727;SDS011;58314;47.722;17.652;2022-11-04T12:27:50;65.20;;;48.63;;
70727;SDS011;58314;47.722;17.652;2022-11-04T12:34:22;65.25;;;48.90;;
70727;SDS011;58314;47.722;17.652;2022-11-04T13:00:30;75.50;;;52.92;;
70727;SDS011;58314;47.722;17.652;2022-11-04T13:03:39;72.50;;;53.75;;
70727;SDS011;58314;47.722;17.652;2022-11-04T13:07:03;73.75;;;53.75;;
70727;SDS011;58314;47.722;17.652;2022-11-04T13:10:20;71.20;;;53.17;;
70727;SDS011;58314;47.722;17.652;2022-11-04T13:13:35;76.28;;;54.28;;
70727;SDS011;58314;47.722;17.652;2022-11-04T13:16:39;78.03;;;54.45;;
70727;SDS011;58314;47.722;17.652;2022-11-04T13:19:44;79.50;;;56.20;;
70727;SDS011;58314;47.722;17.652;2022-11-04T13:22:48;82.00;;;57.27;;
70727;SDS011;58314;47.722;17.652;2022-11-04T13:25:52;85.55;;;57.63;;
70727;SDS011;58314;47.722;17.652;2022-11-04T13:28:56;82.18;;;56.88;;
70727;SDS011;58314;47.722;17.652;2022-11-04T13:38:19;81.68;;;58.17;;
70727;SDS011;58314;47.722;17.652;2022-11-04T13:45:04;87.88;;;57.80;;
70727;SDS011;58314;47.722;17.652;2022-11-04T13:48:11;93.70;;;60.90;;
70727;SDS011;58314;47.722;17.652;2022-11-04T13:51:11;96.05;;;63.00;;
70727;SDS011;58314;47.722;17.652;2022-11-04T13:57:54;91.82;;;61.40;;
70727;SDS011;58314;47.722;17.652;2022-11-04T14:07:12;84.47;;;58.10;;
70727;SDS011;58314;47.722;17.652;2022-11-04T14:13:42;83.60;;;58.30;;
70727;SDS011;58314;47.722;17.652;2022-11-04T14:16:43;85.80;;;59.28;;
70727;SDS011;58314;47.722;17.652;2022-11-04T14:19:46;76.82;;;55.35;;
70727;SDS011;58314;47.722;17.652;2022-11-04T14:23:03;76.00;;;55.45;;
70727;SDS011;58314;47.722;17.652;2022-11-04T14:26:09;74.93;;;54.90;;
70727;SDS011;58314;47.722;17.652;2022-11-04T14:29:18;78.53;;;54.70;;
70727;SDS011;58314;47.722;17.652;2022-11-04T14:32:25;76.15;;;55.13;;
70727;SDS011;58314;47.722;17.652;2022-11-04T14:35:30;74.35;;;55.08;;
70727;SDS011;58314;47.722;17.652;2022-11-04T14:38:32;78.07;;;56.25;;
70727;SDS011;58314;47.722;17.652;2022-11-04T14:47:45;80.47;;;59.47;;
70727;SDS011;58314;47.722;17.652;2022-11-04T14:50:50;84.05;;;60.33;;
70727;SDS011;58314;47.722;17.652;2022-11-04T14:53:55;80.20;;;60.63;;
70727;SDS011;58314;47.722;17.652;2022-11-04T14:57:16;88.22;;;64.35;;
70727;SDS011;58314;47.722;17.652;2022-11-04T15:00:35;87.95;;;64.85;;
70727;SDS011;58314;47.722;17.652;2022-11-04T15:03:38;82.90;;;62.38;;
70727;SDS011;58314;47.722;17.652;2022-11-04T15:06:39;81.25;;;62.15;;
70727;SDS011;58314;47.722;17.652;2022-11-04T15:09:48;85.03;;;64.20;;
70727;SDS011;58314;47.722;17.652;2022-11-04T15:12:50;83.18;;;61.35;;
70727;SDS011;58314;47.722;17.652;2022-11-04T15:15:54;80.97;;;60.33;;
70727;SDS011;58314;47.722;17.652;2022-11-04T15:18:57;78.53;;;60.75;;
70727;SDS011;58314;47.722;17.652;2022-11-04T15:22:00;75.20;;;59.70;;
70727;SDS011;58314;47.722;17.652;2022-11-04T15:25:03;78.57;;;60.38;;
70727;SDS011;58314;47.722;17.652;2022-11-04T15:28:11;82.78;;;65.38;;
70727;SDS011;58314;47.722;17.652;2022-11-04T15:31:24;85.28;;;65.47;;
70727;SDS011;58314;47.722;17.652;2022-11-04T15:34:27;80.78;;;61.45;;
70727;SDS011;58314;47.722;17.652;2022-11-04T15:37:29;73.10;;;59.30;;
70727;SDS011;58314;47.722;17.652;2022-11-04T15:40:31;73.65;;;58.45;;
70727;SDS011;58314;47.722;17.652;2022-11-04T15:43:34;77.45;;;60.20;;
70727;SDS011;58314;47.722;17.652;2022-11-04T15:46:35;74.95;;;58.83;;
70727;SDS011;58314;47.722;17.652;2022-11-04T15:49:37;79.72;;;63.13;;
70727;SDS011;58314;47.722;17.652;2022-11-04T15:52:38;75.65;;;61.72;;
70727;SDS011;58314;47.722;17.652;2022-11-04T15:55:58;76.43;;;59.75;;
70727;SDS011;58314;47.722;17.652;2022-11-04T15:59:00;85.22;;;67.13;;
70727;SDS011;58314;47.722;17.652;2022-11-04T16:02:02;80.10;;;63.20;;
70727;SDS011;58314;47.722;17.652;2022-11-04T16:11:22;93.85;;;75.32;;
70727;SDS011;58314;47.722;17.652;2022-11-04T16:14:24;79.60;;;63.67;;
70727;SDS011;58314;47.722;17.652;2022-11-04T16:17:28;81.57;;;66.82;;
70727;SDS011;58314;47.722;17.652;2022-11-04T16:20:31;88.03;;;67.75;;
70727;SDS011;58314;47.722;17.652;2022-11-04T16:23:41;94.82;;;76.55;;
70727;SDS011;58314;47.722;17.652;2022-11-04T16:26:46;92.00;;;74.15;;
70727;SDS011;58314;47.722;17.652;2022-11-04T16:29:52;80.43;;;68.32;;
70727;SDS011;58314;47.722;17.652;2022-11-04T16:33:17;88.13;;;69.20;;
70727;SDS011;58314;47.722;17.652;2022-11-04T16:36:18;81.25;;;64.93;;
70727;SDS011;58314;47.722;17.652;2022-11-04T16:39:26;83.90;;;66.70;;
70727;SDS011;58314;47.722;17.652;2022-11-04T16:42:27;77.90;;;65.80;;
70727;SDS011;58314;47.722;17.652;2022-11-04T16:45:30;84.25;;;67.22;;
70727;SDS011;58314;47.722;17.652;2022-11-04T16:48:34;95.47;;;75.60;;
70727;SDS011;58314;47.722;17.652;2022-11-04T16:51:36;97.55;;;78.43;;
70727;SDS011;58314;47.722;17.652;2022-11-04T16:54:37;103.93;;;80.32;;
70727;SDS011;58314;47.722;17.652;2022-11-04T16:57:39;104.45;;;85.20;;
70727;SDS011;58314;47.722;17.652;2022-11-04T17:00:41;110.15;;;86.97;;
70727;SDS011;58314;47.722;17.652;2022-11-04T17:03:42;103.47;;;85.30;;
70727;SDS011;58314;47.722;17.652;2022-11-04T17:06:43;95.10;;;78.55;;
70727;SDS011;58314;47.722;17.652;2022-11-04T17:09:46;98.03;;;76.63;;
70727;SDS011;58314;47.722;17.652;2022-11-04T17:12:47;93.18;;;72.68;;
70727;SDS011;58314;47.722;17.652;2022-11-04T17:15:50;93.47;;;76.20;;
70727;SDS011;58314;47.722;17.652;2022-11-04T17:18:51;93.50;;;72.45;;
70727;SDS011;58314;47.722;17.652;2022-11-04T17:21:53;100.65;;;76.00;;
70727;SDS011;58314;47.722;17.652;2022-11-04T17:24:54;101.75;;;72.22;;
70727;SDS011;58314;47.722;17.652;2022-11-04T17:27:55;96.13;;;68.75;;
70727;SDS011;58314;47.722;17.652;2022-11-04T17:30:57;93.97;;;68.45;;
70727;SDS011;58314;47.722;17.652;2022-11-04T17:33:59;87.55;;;63.60;;
70727;SDS011;58314;47.722;17.652;2022-11-04T17:37:01;67.30;;;51.53;;
70727;SDS011;58314;47.722;17.652;2022-11-04T17:40:04;58.13;;;45.35;;
70727;SDS011;58314;47.722;17.652;2022-11-04T17:43:08;31.42;;;25.23;;
70727;SDS011;58314;47.722;17.652;2022-11-04T17:46:28;15.52;;;12.50;;
70727;SDS011;58314;47.722;17.652;2022-11-04T17:49:38;9.85;;;7.70;;
70727;SDS011;58314;47.722;17.652;2022-11-04T17:52:39;6.45;;;5.28;;
70727;SDS011;58314;47.722;17.652;2022-11-04T17:55:44;4.60;;;3.58;;
70727;SDS011;58314;47.722;17.652;2022-11-04T17:58:46;4.50;;;3.53;;
70727;SDS011;58314;47.722;17.652;2022-11-04T18:01:49;5.57;;;4.32;;
70727;SDS011;58314;47.722;17.652;2022-11-04T18:04:50;4.70;;;3.00;;
70727;SDS011;58314;47.722;17.652;2022-11-04T18:07:52;3.20;;;2.63;;
70727;SDS011;58314;47.722;17.652;2022-11-04T18:10:58;3.35;;;2.80;;
70727;SDS011;58314;47.722;17.652;2022-11-04T18:14:01;4.00;;;2.97;;
70727;SDS011;58314;47.722;17.652;2022-11-04T18:17:03;3.30;;;2.20;;
70727;SDS011;58314;47.722;17.652;2022-11-04T18:20:06;3.60;;;2.08;;
70727;SDS011;58314;47.722;17.652;2022-11-04T18:23:09;2.85;;;2.05;;
70727;SDS011;58314;47.722;17.652;2022-11-04T18:26:13;2.55;;;1.90;;
70727;SDS011;58314;47.722;17.652;2022-11-04T18:29:15;4.47;;;2.42;;
70727;SDS011;58314;47.722;17.652;2022-11-04T18:32:16;2.88;;;1.88;;
70727;SDS011;58314;47.722;17.652;2022-11-04T18:35:18;2.20;;;1.30;;
70727;SDS011;58314;47.722;17.652;2022-11-04T18:38:20;2.30;;;1.52;;
70727;SDS011;58314;47.722;17.652;2022-11-04T18:41:22;2.20;;;1.60;;
70727;SDS011;58314;47.722;17.652;2022-11-04T18:44:23;3.10;;;1.60;;
70727;SDS011;58314;47.722;17.652;2022-11-04T18:47:24;2.63;;;1.80;;
70727;SDS011;58314;47.722;17.652;2022-11-04T18:50:26;3.05;;;1.80;;
70727;SDS011;58314;47.722;17.652;2022-11-04T18:53:29;2.20;;;1.02;;
70727;SDS011;58314;47.722;17.652;2022-11-04T18:56:30;1.25;;;0.80;;
70727;SDS011;58314;47.722;17.652;2022-11-04T18:59:32;1.10;;;0.80;;
70727;SDS011;58314;47.722;17.652;2022-11-04T19:02:34;1.25;;;0.80;;
70727;SDS011;58314;47.722;17.652;2022-11-04T19:05:39;1.02;;;0.60;;
70727;SDS011;58314;47.722;17.652;2022-11-04T19:08:41;1.10;;;0.75;;
70727;SDS011;58314;47.722;17.652;2022-11-04T19:11:46;3.95;;;0.73;;
70727;SDS011;58314;47.722;17.652;2022-11-04T19:14:47;1.13;;;0.60;;
70727;SDS011;58314;47.722;17.652;2022-11-04T19:17:49;1.50;;;0.93;;
70727;SDS011;58314;47.722;17.652;2022-11-04T19:20:52;2.10;;;1.27;;
70727;SDS011;58314;47.722;17.652;2022-11-04T19:23:54;1.35;;;0.88;;
70727;SDS011;58314;47.722;17.652;2022-11-04T19:26:59;1.27;;;0.80;;
70727;SDS011;58314;47.722;17.652;2022-11-04T19:30:02;1.30;;;0.80;;
70727;SDS011;58314;47.722;17.652;2022-11-04T19:33:04;1.75;;;0.90;;
70727;SDS011;58314;47.722;17.652;2022-11-04T19:36:06;3.45;;;0.93;;
70727;SDS011;58314;47.722;17.652;2022-11-04T19:39:09;1.30;;;0.73;;
70727;SDS011;58314;47.722;17.652;2022-11-04T19:42:12;1.15;;;0.55;;
70727;SDS011;58314;47.722;17.652;2022-11-04T19:45:36;1.77;;;0.80;;
70727;SDS011;58314;47.722;17.652;2022-11-04T19:48:38;2.75;;;0.70;;
70727;SDS011;58314;47.722;17.652;2022-11-04T19:51:40;1.52;;;0.80;;
70727;SDS011;58314;47.722;17.652;2022-11-04T19:54:42;1.42;;;0.77;;
70727;SDS011;58314;47.722;17.652;2022-11-04T19:57:43;2.30;;;0.70;;
70727;SDS011;58314;47.722;17.652;2022-11-04T20:00:45;2.15;;;0.90;;
70727;SDS011;58314;47.722;17.652;2022-11-04T20:03:47;1.48;;;0.90;;
70727;SDS011;58314;47.722;17.652;2022-11-04T20:06:48;2.33;;;1.48;;